Athens, Greece

1:57 PM EET on December 05, 2016 (GMT +0200)
SV1JST | | Change Station

Elev 280 ft 37.89 °N, 23.76 °E | Updated 28 seconds ago

Partly Cloudy
Partly Cloudy
58.5 °F
Feels Like 58.5 °F
N
11.5
Wind Variable Wind from NNW
Gusts 11.5 mph

Today
High -- | Low -- °F
--% Chance of Precip.
Yesterday
High -- | Low -- °F
Precip. -- in
Pressure 30.39 in
Visibility 6.2 miles
Clouds Few 2500 ft
Dew Point 38 °F
Humidity 47%
Rainfall 0.00 in
Snow Depth Not available.
7:25 AM 5:05 PM
Waxing Crescent, 31% visible
METAR LGAV 051150Z 04023G34KT 9999 FEW025 12/01 Q1029 NOSIG
Pressure 30.39 in
Visibility 6.2 miles
Clouds Few 2500 ft
Dew Point 38 °F
Humidity 47%
Rainfall 0.00 in
Snow Depth Not available.
7:25 AM 5:05 PM
Waxing Crescent, 31% visible
METAR LGAV 051150Z 04023G34KT 9999 FEW025 12/01 Q1029 NOSIG

10-Day Weather Forecast

×

Almanac

Astronomy

Dec. 05, 2016 Rise Set
Actual Time
Civil Twilight
Nautical Twilight
Astronomical Twilight
Moon
Length of Visible Light
Length of Day
Tomorrow will be .
, % of the Moon is Illuminated

Today's Extremes

Country Highs Country Lows

Community

WunderPhotos

Upload Photos

1,955,777 photos uploaded!

WunderBlog® & News

Nearby

Air Quality

  Air Quality AQ Index Pollutant
Not available.

Snow Depth

Station Depth Elevation

Earthquake Activity

City Distance Mag. Time & Date
Minimum magnitude displayed is 2.5.

Coastal Water Temperatures

Place Temperature

Stations

Nearby Weather Stations

Station Location Temp. Windchill Dew Point Humidity Wind Precip. Elev Updated Type